Bluff Dale, TX (76433)

8:15 AM CST on December 04, 2016 (GMT -0600)
Mountain Lakes | | Change Station

Elev 1100 ft 32.31 °N, 98.01 °W | Updated 6 seconds ago

Overcast
Overcast
46.1 °F
Feels Like 44 °F
N
5.0
Wind Variable Wind from NNE

Today
High -- | Low -- °F
--% Chance of Precip.
Yesterday
High -- | Low -- °F
Precip. -- in
Pressure 30.05 in
Visibility 10.0 miles
Clouds Mostly Cloudy 800 ft
Mostly Cloudy 1300 ft
Overcast 2000 ft
Windchill 44 °F
Dew Point 45 °F
Humidity 97%
Rainfall 0.09 in
Snow Depth Not available.
7:18 AM 5:26 PM
Waxing Crescent, 23% visible
METAR KSEP 041355Z AUTO 35010KT 10SM BKN008 BKN013 OVC020 08/07 A3005 RMK AO2 T00790069
Pressure 30.05 in
Visibility 10.0 miles
Clouds Mostly Cloudy 800 ft
Mostly Cloudy 1300 ft
Overcast 2000 ft
Windchill 44 °F
Dew Point 45 °F
Humidity 97%
Rainfall 0.09 in
Snow Depth Not available.
7:18 AM 5:26 PM
Waxing Crescent, 23% visible
METAR KSEP 041355Z AUTO 35010KT 10SM BKN008 BKN013 OVC020 08/07 A3005 RMK AO2 T00790069

10-Day Weather Forecast

Almanac

Astronomy

Dec. 04, 2016 Rise Set
Actual Time
Civil Twilight
Nautical Twilight
Astronomical Twilight
Moon
Length of Visible Light
Length of Day
Tomorrow will be .
, % of the Moon is Illuminated

Today's Extremes

State Highs State Lows

Community

WunderPhotos

Upload Photos

1,955,598 photos uploaded!

WunderBlog® & News

Nearby

Air Quality

  Air Quality AQ Index Pollutant
Not available.

Snow Depth

Station Depth Elevation

Earthquake Activity

City Distance Mag. Time & Date
Minimum magnitude displayed is 2.5.

Coastal Water Temperatures

Place Temperature

Stations

Nearby Weather Stations

Station Location Temp. Windchill Dew Point Humidity Wind Precip. Elev Updated Type
                   

Watches & Warnings

There are currently no watches in effect.